Time;durP1;ratioP1;P1;durP2;ratioP2;P2;SDS_P1;SDS_P2;PMS_P1;PMS_P2;Temp;Humidity;BMP_temperature;BMP_pressure;BME280_temperature;BME280_humidity;BME280_pressure;Samples;Min_cycle;Max_cycle;Signal;HPM_P1;HPM_P2
2021/07/24 00:00:46;;;;;;;;;18.75;17.50;;;;;26.71;41.05;100285.75;4979801;28;45423;-85
2021/07/24 00:03:12;;;;;;;;;17.75;17.00;;;;;26.76;41.18;100293.50;4958089;28;45607;-86
2021/07/24 00:05:46;;;;;;;;;20.50;15.75;;;;;26.69;41.58;100287.69;4980841;28;45379;-85
2021/07/24 00:08:14;;;;;;;;;14.75;14.75;;;;;26.73;41.38;100301.81;4979712;28;45502;-83
2021/07/24 00:10:40;;;;;;;;;20.25;16.25;;;;;26.70;41.31;100297.50;4955873;28;45434;-83
2021/07/24 00:13:06;;;;;;;;;20.50;20.00;;;;;26.71;41.75;100298.41;4954031;28;45603;-87
2021/07/24 00:15:31;;;;;;;;;17.75;15.50;;;;;26.65;41.79;100298.84;4956053;28;47346;-87
2021/07/24 00:17:57;;;;;;;;;18.25;15.25;;;;;26.64;41.54;100299.84;4968991;28;45366;-87
2021/07/24 00:20:23;;;;;;;;;21.25;20.00;;;;;26.58;41.65;100283.16;4967448;28;45467;-87
2021/07/24 00:22:49;;;;;;;;;17.75;17.50;;;;;26.61;42.08;100287.44;4950882;28;45738;-86
2021/07/24 00:25:15;;;;;;;;;15.75;15.00;;;;;26.56;41.75;100273.44;4963696;28;47316;-87
2021/07/24 00:27:40;;;;;;;;;17.50;16.00;;;;;26.52;41.78;100271.97;4965973;28;45222;-86
2021/07/24 00:30:06;;;;;;;;;16.75;15.75;;;;;26.54;41.51;100272.69;4964501;28;45187;-86
2021/07/24 00:32:34;;;;;;;;;16.25;16.25;;;;;26.51;41.59;100270.22;4981216;28;45255;-87
2021/07/24 00:35:00;;;;;;;;;15.00;15.00;;;;;26.50;41.24;100274.75;4960137;28;46281;-86
2021/07/24 00:37:29;;;;;;;;;15.50;15.00;;;;;26.50;41.06;100274.75;4977098;28;45471;-86
2021/07/24 00:39:54;;;;;;;;;16.75;15.00;;;;;26.56;40.34;100278.84;4955670;28;45455;-87
2021/07/24 00:42:25;;;;;;;;;17.25;16.50;;;;;26.51;40.60;100270.22;4962275;28;45474;-87
2021/07/24 00:44:53;;;;;;;;;17.00;14.00;;;;;26.52;40.41;100272.84;4966388;28;45409;-86
2021/07/24 00:47:23;;;;;;;;;14.50;14.00;;;;;26.57;40.38;100270.63;4949362;28;45337;-87
2021/07/24 00:49:50;;;;;;;;;15.50;14.50;;;;;26.57;40.29;100285.94;4962902;28;45572;-87
2021/07/24 00:52:16;;;;;;;;;15.25;14.25;;;;;26.56;40.47;100301.28;4948717;28;45445;-85
2021/07/24 00:54:42;;;;;;;;;14.25;13.25;;;;;26.51;40.57;100303.50;4979590;28;46260;-87
2021/07/24 00:57:08;;;;;;;;;15.75;14.75;;;;;26.52;40.73;100312.47;4960851;28;45346;-87
2021/07/24 00:59:36;;;;;;;;;14.25;13.00;;;;;26.52;40.43;100318.72;4987423;28;45246;-87
2021/07/24 01:02:03;;;;;;;;;15.50;15.00;;;;;26.55;40.78;100309.53;4975895;28;45457;-87
2021/07/24 01:04:29;;;;;;;;;16.00;14.75;;;;;26.57;40.81;100303.03;4968852;28;46193;-85
2021/07/24 01:06:58;;;;;;;;;18.75;14.00;;;;;26.49;40.87;100267.66;4979379;28;45454;-86
2021/07/24 01:09:24;;;;;;;;;13.00;13.00;;;;;26.53;40.55;100271.00;4971546;28;45289;-86
2021/07/24 01:11:51;;;;;;;;;14.50;12.50;;;;;26.58;40.38;100274.19;4987047;28;45449;-84
2021/07/24 01:14:17;;;;;;;;;16.25;13.00;;;;;26.53;40.43;100276.38;4992216;28;46270;-86
2021/07/24 01:16:46;;;;;;;;;15.00;12.25;;;;;26.55;40.73;100288.78;4973473;28;45282;-86
2021/07/24 01:19:13;;;;;;;;;15.75;15.25;;;;;26.49;40.52;100273.03;4979241;28;45384;-85
2021/07/24 01:21:38;;;;;;;;;14.00;14.00;;;;;26.50;40.92;100290.94;4964474;28;45493;-87
2021/07/24 01:24:04;;;;;;;;;18.50;13.50;;;;;26.44;41.04;100285.16;4964752;28;46673;-85
2021/07/24 01:26:34;;;;;;;;;15.00;14.75;;;;;26.36;40.96;100275.81;4965606;28;45325;-86
2021/07/24 01:29:00;;;;;;;;;15.25;14.25;;;;;26.38;41.01;100281.09;4984198;28;45442;-87
2021/07/24 01:31:28;;;;;;;;;14.25;14.25;;;;;26.31;41.81;100288.81;4991493;28;45360;-87
2021/07/24 01:33:54;;;;;;;;;16.25;14.25;;;;;26.24;42.74;100300.19;4990848;28;46482;-87
2021/07/24 01:36:19;;;;;;;;;18.00;13.50;;;;;26.12;43.23;100315.50;4986478;28;46071;-85
2021/07/24 01:38:48;;;;;;;;;14.00;13.00;;;;;26.03;44.36;100308.94;4965033;28;45267;-87
2021/07/24 01:41:14;;;;;;;;;13.75;13.75;;;;;25.90;44.81;100297.34;4994235;28;45922;-87
2021/07/24 01:43:43;;;;;;;;;11.50;10.50;;;;;25.80;46.09;100305.25;4963689;28;46643;-86
2021/07/24 01:46:08;;;;;;;;;12.25;9.25;;;;;25.69;47.06;100315.97;4963525;28;45451;-87
2021/07/24 01:53:50;;;;;;;;;10.75;10.75;;;;;25.38;48.57;100328.97;4984543;28;45274;-87
2021/07/24 01:56:19;;;;;;;;;12.50;9.75;;;;;25.28;48.99;100330.63;4980019;28;45452;-87
2021/07/24 01:58:45;;;;;;;;;8.25;7.75;;;;;25.23;49.24;100322.88;4963331;28;45262;-86
2021/07/24 02:01:11;;;;;;;;;10.25;9.50;;;;;25.13;49.41;100329.84;4984330;28;45503;-87
2021/07/24 02:03:44;;;;;;;;;11.00;10.25;;;;;25.09;49.70;100349.91;4985462;28;47720;-87
2021/07/24 02:06:12;;;;;;;;;9.00;9.00;;;;;25.02;49.11;100338.72;4966696;28;45346;-87
2021/07/24 02:08:41;;;;;;;;;9.75;9.75;;;;;25.02;50.25;100344.09;4967879;28;45174;-87
2021/07/24 02:11:07;;;;;;;;;9.00;9.00;;;;;25.01;50.52;100339.66;4964258;28;45465;-88
2021/07/24 02:13:33;;;;;;;;;10.00;9.00;;;;;24.96;50.81;100336.41;4962988;28;47269;-86
2021/07/24 02:16:00;;;;;;;;;12.25;12.00;;;;;24.93;50.43;100327.72;4981375;28;45386;-86
2021/07/24 02:18:29;;;;;;;;;10.25;10.25;;;;;24.85;51.65;100330.94;4973431;28;45311;-86
2021/07/24 02:20:57;;;;;;;;;13.75;13.25;;;;;24.72;51.68;100325.53;4968705;28;45361;-87
2021/07/24 02:23:22;;;;;;;;;9.00;9.00;;;;;24.72;51.88;100341.69;4981105;28;46688;-85
2021/07/24 02:25:48;;;;;;;;;8.75;8.75;;;;;24.66;51.46;100323.28;4965795;28;44732;-85
2021/07/24 02:28:16;;;;;;;;;10.25;9.25;;;;;24.58;51.92;100320.25;4964847;28;45450;-86
2021/07/24 02:30:41;;;;;;;;;9.50;8.75;;;;;24.59;51.98;100330.03;4984177;28;45523;-84
2021/07/24 02:33:07;;;;;;;;;11.50;8.50;;;;;24.56;52.01;100346.41;4977413;28;45231;-85
2021/07/24 02:35:32;;;;;;;;;10.00;9.25;;;;;24.60;52.09;100353.31;4963677;28;45241;-85
2021/07/24 02:38:01;;;;;;;;;9.00;8.67;;;;;24.57;51.94;100340.09;4965681;28;45211;-87
2021/07/24 02:40:26;;;;;;;;;8.00;8.00;;;;;24.57;51.95;100345.47;4963443;28;46022;-86
2021/07/24 02:42:51;;;;;;;;;9.50;9.50;;;;;24.50;51.44;100330.69;4963227;28;48285;-87
2021/07/24 02:45:17;;;;;;;;;8.33;7.33;;;;;24.54;51.87;100334.88;4964749;28;45315;-86
2021/07/24 02:47:43;;;;;;;;;6.33;6.33;;;;;24.54;51.79;100342.94;4964193;28;45330;-87
2021/07/24 02:50:12;;;;;;;;;9.25;9.25;;;;;24.53;52.49;100343.94;4965915;28;45544;-86
2021/07/24 02:52:38;;;;;;;;;6.67;6.67;;;;;24.51;52.09;100353.94;4964443;28;47363;-85
2021/07/24 02:55:04;;;;;;;;;5.67;5.00;;;;;24.47;51.77;100344.38;4986919;28;45215;-86
2021/07/24 02:57:29;;;;;;;;;8.00;6.50;;;;;24.45;51.86;100344.44;4988239;28;45434;-86
2021/07/24 02:59:55;;;;;;;;;8.33;6.33;;;;;24.41;51.44;100346.47;4986798;28;45494;-86
2021/07/24 03:02:20;;;;;;;;;7.00;7.00;;;;;24.31;51.47;100333.75;4959778;28;47521;-85
2021/07/24 03:04:46;;;;;;;;;8.00;6.00;;;;;24.22;51.70;100332.53;4952363;28;45354;-87
2021/07/24 03:07:11;;;;;;;;;6.25;5.50;;;;;24.15;51.77;100326.69;4958051;28;45435;-86
2021/07/24 03:09:37;;;;;;;;;6.75;6.00;;;;;24.10;52.08;100325.28;4960608;28;45412;-87
2021/07/24 03:12:03;;;;;;;;;4.67;4.67;;;;;24.05;51.71;100332.78;4964170;28;45467;-87
2021/07/24 03:14:29;;;;;;;;;5.75;5.25;;;;;24.04;51.60;100344.53;4961783;28;46341;-85
2021/07/24 03:16:54;;;;;;;;;6.33;5.33;;;;;23.95;51.70;100351.34;4947380;28;45303;-86
2021/07/24 03:19:20;;;;;;;;;4.67;4.67;;;;;23.84;51.74;100346.69;4959927;28;45497;-85
2021/07/24 03:21:45;;;;;;;;;5.00;5.00;;;;;23.84;51.96;100356.56;4947154;28;46392;-86
2021/07/24 03:24:11;;;;;;;;;4.00;4.00;;;;;23.79;51.91;100362.28;4948420;28;45338;-86
2021/07/24 03:26:39;;;;;;;;;6.00;5.00;;;;;23.69;51.85;100351.22;4946987;28;45246;-85
2021/07/24 03:29:05;;;;;;;;;5.33;5.33;;;;;23.70;52.28;100357.44;4976558;28;45341;-87
2021/07/24 03:31:30;;;;;;;;;5.00;5.00;;;;;23.70;51.89;100377.13;4988243;28;45460;-87
2021/07/24 03:33:56;;;;;;;;;6.00;4.33;;;;;23.63;52.32;100374.91;4969314;28;45360;-87
2021/07/24 03:36:21;;;;;;;;;4.00;4.00;;;;;23.51;52.33;100368.53;4982990;28;45347;-87
2021/07/24 03:38:47;;;;;;;;;6.00;5.00;;;;;23.47;52.63;100381.28;4978302;28;45449;-85
2021/07/24 03:41:12;;;;;;;;;7.33;5.67;;;;;23.44;52.43;100376.13;4948900;28;47001;-86
2021/07/24 03:43:38;;;;;;;;;5.00;5.00;;;;;23.43;53.00;100385.13;4977996;28;45437;-85
2021/07/24 03:46:12;;;;;;;;;7.67;5.00;;;;;23.36;52.94;100382.91;4959477;28;45376;-84
2021/07/24 03:48:37;;;;;;;;;3.67;3.67;;;;;23.32;52.86;100379.56;4962262;28;45739;-85
2021/07/24 03:51:03;;;;;;;;;7.00;6.00;;;;;23.35;52.92;100406.22;4950026;28;47283;-86
2021/07/24 03:53:30;;;;;;;;;5.00;5.00;;;;;23.26;52.56;100396.06;4973461;28;45448;-85
2021/07/24 03:55:56;;;;;;;;;7.00;5.67;;;;;23.23;53.04;100415.03;4955060;28;45344;-86
2021/07/24 03:58:21;;;;;;;;;6.00;5.00;;;;;23.21;52.85;100425.91;4960777;28;45469;-87
2021/07/24 04:00:48;;;;;;;;;6.00;5.33;;;;;23.14;52.77;100427.22;4979285;28;48471;-87
2021/07/24 04:03:14;;;;;;;;;6.00;6.00;;;;;23.15;52.64;100442.41;4986120;28;45506;-87
2021/07/24 04:05:43;;;;;;;;;5.50;5.50;;;;;23.21;52.97;100465.34;4985285;28;45413;-87
2021/07/24 04:08:12;;;;;;;;;4.00;4.00;;;;;23.18;52.67;100469.06;4966470;28;45818;-87
2021/07/24 04:10:40;;;;;;;;;8.00;6.00;;;;;23.12;52.66;100469.41;4972661;28;48161;-87
2021/07/24 04:13:06;;;;;;;;;7.33;7.33;;;;;23.12;52.94;100466.72;4972473;28;45395;-85
2021/07/24 04:15:34;;;;;;;;;5.67;5.67;;;;;23.04;52.67;100463.66;4975041;28;45205;-86
2021/07/24 04:17:59;;;;;;;;;11.25;9.25;;;;;23.00;52.91;100473.72;4984477;28;45526;-86
2021/07/24 04:20:26;;;;;;;;;5.67;5.00;;;;;23.02;52.61;100479.00;4972275;28;45368;-87
2021/07/24 04:22:55;;;;;;;;;4.33;4.33;;;;;23.00;53.27;100472.84;4970342;28;45312;-87
2021/07/24 04:25:20;;;;;;;;;7.00;5.00;;;;;23.01;53.16;100485.31;4970873;28;45444;-87
2021/07/24 04:27:48;;;;;;;;;6.67;6.00;;;;;22.97;53.22;100495.38;4982061;28;45524;-87
2021/07/24 04:30:16;;;;;;;;;7.75;7.00;;;;;22.96;53.38;100490.97;4977985;28;47085;-87
2021/07/24 04:32:41;;;;;;;;;5.33;5.33;;;;;22.92;53.42;100486.69;4996410;28;45296;-87
2021/07/24 04:35:07;;;;;;;;;4.67;4.67;;;;;22.90;54.69;100492.16;4988412;28;45164;-86
2021/07/24 04:37:32;;;;;;;;;7.00;7.00;;;;;22.86;53.32;100493.31;4986747;28;45249;-87
2021/07/24 04:40:03;;;;;;;;;6.00;6.00;;;;;22.85;53.53;100499.63;4986471;28;47321;-87
2021/07/24 04:42:29;;;;;;;;;8.75;6.00;;;;;22.84;53.71;100488.97;4987232;28;45440;-86
2021/07/24 04:44:54;;;;;;;;;7.75;7.75;;;;;22.78;53.79;100487.53;4985113;28;45424;-86
2021/07/24 04:47:20;;;;;;;;;4.67;4.67;;;;;22.74;53.75;100485.97;4985315;28;45441;-86
2021/07/24 04:49:48;;;;;;;;;7.00;7.00;;;;;22.72;54.01;100501.31;4967528;28;47092;-86
2021/07/24 04:52:14;;;;;;;;;7.00;5.50;;;;;22.61;54.32;100488.53;4965950;28;45491;-87
2021/07/24 04:54:42;;;;;;;;;8.25;5.75;;;;;22.61;53.79;100491.19;4971271;28;45478;-86
2021/07/24 04:57:09;;;;;;;;;5.33;5.33;;;;;22.61;54.31;100495.69;4972475;28;45423;-85
2021/07/24 04:59:48;;;;;;;;;7.00;7.00;;;;;22.52;54.60;100499.75;4975900;28;45490;-87
2021/07/24 05:02:18;;;;;;;;;5.00;5.00;;;;;22.47;54.51;100496.47;4981494;28;45291;-87
2021/07/24 05:04:44;;;;;;;;;6.25;5.75;;;;;22.50;54.70;100496.28;4971694;28;45289;-86
2021/07/24 05:07:18;;;;;;;;;6.00;5.00;;;;;22.45;54.29;100498.38;4977272;28;45292;-86
2021/07/24 05:09:44;;;;;;;;;5.50;5.50;;;;;22.45;54.68;100501.06;4984609;28;48253;-84
2021/07/24 05:12:12;;;;;;;;;5.00;5.00;;;;;22.40;54.99;100492.41;4982991;28;46131;-85
2021/07/24 05:14:40;;;;;;;;;7.50;7.50;;;;;22.44;54.60;100504.69;4985027;28;45178;-85
2021/07/24 05:17:08;;;;;;;;;8.75;8.00;;;;;22.44;54.87;100507.38;4969613;28;46205;-87
2021/07/24 05:19:41;;;;;;;;;7.00;7.00;;;;;22.40;54.86;100512.06;4972886;28;45650;-86
2021/07/24 05:22:12;;;;;;;;;6.75;6.25;;;;;22.39;55.00;100512.16;4981771;28;45394;-87
2021/07/24 05:24:38;;;;;;;;;8.50;6.00;;;;;22.38;55.04;100518.47;4974596;28;45343;-87
2021/07/24 05:27:04;;;;;;;;;6.67;6.00;;;;;22.33;55.09;100516.03;4980250;28;45454;-87
2021/07/24 05:29:30;;;;;;;;;6.00;6.00;;;;;22.28;55.47;100509.22;4976361;28;47149;-87
2021/07/24 05:31:56;;;;;;;;;8.67;8.00;;;;;22.28;55.45;100511.91;4965718;28;45537;-87
2021/07/24 05:34:24;;;;;;;;;6.67;6.67;;;;;22.19;55.18;100524.00;4965328;28;45261;-90
2021/07/24 05:36:50;;;;;;;;;6.00;6.00;;;;;22.25;55.11;100526.34;4965424;28;45769;-88
2021/07/24 05:39:15;;;;;;;;;7.67;7.67;;;;;22.23;54.55;100521.03;4967412;28;45760;-91
2021/07/24 05:41:41;;;;;;;;;7.50;5.25;;;;;22.14;54.77;100526.03;4976200;28;45616;-93
2021/07/24 05:44:07;;;;;;;;;8.00;7.00;;;;;22.07;54.98;100516.59;4965344;28;45256;-89
2021/07/24 05:46:35;;;;;;;;;5.67;5.00;;;;;22.07;54.98;100524.63;4968297;28;45274;-90
2021/07/24 05:49:00;;;;;;;;;5.75;5.50;;;;;22.02;55.19;100524.88;4984589;28;46190;-94
2021/07/24 05:51:26;;;;;;;;;6.00;6.00;;;;;21.93;55.07;100523.59;4976635;28;45582;-93
2021/07/24 05:53:52;;;;;;;;;6.00;6.00;;;;;21.90;55.27;100520.22;4986115;28;45432;-93
2021/07/24 05:56:17;;;;;;;;;6.67;5.33;;;;;21.95;54.90;100537.78;4986426;28;45347;-93
2021/07/24 05:58:50;;;;;;;;;6.75;6.00;;;;;21.90;54.79;100525.56;4978294;28;47278;-86
2021/07/24 06:04:53;;;;;;;;;5.25;4.00;;;;;21.84;55.19;100518.72;4973203;28;44820;-93
2021/07/24 06:07:18;;;;;;;;;6.50;6.50;;;;;21.78;55.19;100513.69;4976156;28;45272;-91
2021/07/24 06:09:45;;;;;;;;;8.00;6.50;;;;;21.83;55.03;100522.34;4993409;28;46887;-94
2021/07/24 06:12:16;;;;;;;;;7.25;7.25;;;;;21.87;55.38;100523.06;4977636;28;45191;-89
2021/07/24 06:14:42;;;;;;;;;6.25;6.00;;;;;21.92;55.72;100527.22;4995336;28;44818;-93
2021/07/24 06:17:10;;;;;;;;;4.50;4.50;;;;;21.92;55.40;100511.13;4975653;28;45341;-91
2021/07/24 06:19:38;;;;;;;;;6.75;5.75;;;;;21.95;55.57;100516.31;4986395;28;47327;-91
2021/07/24 06:22:03;;;;;;;;;8.00;7.00;;;;;21.97;55.86;100517.13;4981640;28;45448;-86
2021/07/24 06:24:29;;;;;;;;;6.00;5.25;;;;;22.02;55.53;100517.72;4962147;28;45536;-91
2021/07/24 06:26:54;;;;;;;;;8.00;7.00;;;;;22.00;55.54;100514.25;4983347;28;45436;-91
2021/07/24 06:29:20;;;;;;;;;7.00;6.75;;;;;22.03;55.54;100507.88;4993016;28;46968;-89
2021/07/24 06:31:45;;;;;;;;;7.50;6.50;;;;;22.11;55.34;100519.03;4995194;28;44744;-89
2021/07/24 06:34:11;;;;;;;;;7.67;6.67;;;;;22.11;55.43;100520.84;4973703;28;45405;-88
2021/07/24 06:36:39;;;;;;;;;8.00;6.00;;;;;22.10;54.96;100511.91;4962395;28;46137;-88
2021/07/24 06:39:04;;;;;;;;;7.25;5.25;;;;;22.09;54.90;100506.66;4973007;28;46566;-88
2021/07/24 06:41:32;;;;;;;;;5.00;5.00;;;;;22.10;55.10;100503.88;4969188;28;45270;-88
2021/07/24 06:43:58;;;;;;;;;7.67;5.00;;;;;22.10;54.98;100513.75;4971113;28;45351;-89
2021/07/24 06:46:23;;;;;;;;;7.00;7.00;;;;;22.05;55.05;100505.94;4961375;28;46001;-88
2021/07/24 06:48:49;;;;;;;;;4.00;4.00;;;;;22.06;54.23;100513.06;4975247;28;46286;-89
2021/07/24 06:51:16;;;;;;;;;5.50;5.50;;;;;22.01;54.71;100513.31;4968518;28;45428;-87
2021/07/24 06:53:42;;;;;;;;;4.00;4.00;;;;;22.04;54.57;100509.59;4962667;28;45402;-88
2021/07/24 06:56:09;;;;;;;;;5.67;5.33;;;;;22.07;54.54;100514.78;4979625;28;45388;-88
2021/07/24 06:58:39;;;;;;;;;6.00;5.33;;;;;22.12;54.48;100520.75;4970779;28;46715;-87
2021/07/24 07:01:07;;;;;;;;;6.00;5.67;;;;;22.16;54.17;100514.28;4982980;28;45600;-89
2021/07/24 07:03:32;;;;;;;;;5.33;5.33;;;;;22.26;54.72;100517.31;4947498;28;45397;-89
2021/07/24 07:05:58;;;;;;;;;4.67;4.67;;;;;22.30;54.61;100521.59;4967774;28;45540;-90
2021/07/24 07:08:24;;;;;;;;;5.33;5.33;;;;;22.33;54.14;100517.88;4983339;28;45010;-88
2021/07/24 07:10:50;;;;;;;;;4.00;4.00;;;;;22.34;53.75;100519.59;4971304;28;45616;-88
2021/07/24 07:13:15;;;;;;;;;10.50;8.00;;;;;22.43;54.01;100524.44;4970738;28;45248;-91
2021/07/24 07:15:41;;;;;;;;;5.00;4.00;;;;;22.40;53.54;100514.75;4955700;28;45432;-86
2021/07/24 07:18:06;;;;;;;;;6.67;5.67;;;;;22.46;53.54;100527.81;4957948;28;46355;-87
2021/07/24 07:20:32;;;;;;;;;4.00;3.00;;;;;22.54;52.72;100529.19;4949910;28;45284;-87
2021/07/24 07:22:59;;;;;;;;;4.33;4.00;;;;;22.56;52.75;100538.91;4966107;28;45227;-86
2021/07/24 07:25:25;;;;;;;;;5.00;5.00;;;;;22.56;52.88;100541.59;4945959;28;45335;-90
2021/07/24 07:27:50;;;;;;;;;8.00;6.67;;;;;22.56;52.75;100529.97;4957010;28;46194;-87
2021/07/24 07:30:17;;;;;;;;;5.00;5.00;;;;;22.62;52.80;100529.63;4957162;28;45414;-83
2021/07/24 07:32:46;;;;;;;;;5.00;5.00;;;;;22.67;52.65;100524.88;4964954;28;45371;-85
2021/07/24 07:35:11;;;;;;;;;6.00;4.00;;;;;22.72;52.65;100522.78;4961222;28;45312;-82
2021/07/24 07:37:50;;;;;;;;;7.00;6.00;;;;;22.80;52.31;100525.88;4946177;28;47141;-87
2021/07/24 07:40:18;;;;;;;;;4.00;4.00;;;;;22.88;52.39;100539.72;4946339;28;45355;-84
2021/07/24 07:42:43;;;;;;;;;4.33;4.33;;;;;22.96;52.23;100538.38;4944218;28;45507;-81
2021/07/24 07:45:12;;;;;;;;;3.00;3.00;;;;;23.04;51.65;100541.53;4950991;28;46117;-85
2021/07/24 07:47:37;;;;;;;;;6.67;6.00;;;;;23.11;51.99;100534.84;4979508;28;45334;-83
2021/07/24 07:50:05;;;;;;;;;4.00;4.00;;;;;23.18;51.85;100543.41;4960886;28;45374;-83
2021/07/24 07:52:32;;;;;;;;;6.00;5.00;;;;;23.25;51.53;100542.06;4943806;28;45470;-86
2021/07/24 07:54:59;;;;;;;;;4.00;3.00;;;;;23.34;51.06;100541.53;4946476;28;45462;-83
2021/07/24 07:57:26;;;;;;;;;5.33;4.00;;;;;23.43;51.09;100551.72;4943642;28;47045;-84
2021/07/24 07:59:52;;;;;;;;;3.33;3.00;;;;;23.49;50.93;100550.47;4973311;28;45274;-83
2021/07/24 08:02:18;;;;;;;;;6.00;6.00;;;;;23.52;50.31;100551.16;4977136;28;45276;-86
2021/07/24 08:04:43;;;;;;;;;4.00;4.00;;;;;23.61;50.42;100544.38;4963867;28;45166;-83
2021/07/24 08:07:09;;;;;;;;;5.50;4.75;;;;;23.75;50.67;100543.53;4961112;28;46973;-85
2021/07/24 08:09:34;;;;;;;;;6.50;4.50;;;;;23.82;50.33;100533.25;4961505;28;45400;-86
2021/07/24 08:12:00;;;;;;;;;3.00;3.00;;;;;23.87;50.05;100534.72;4963525;28;45817;-83
2021/07/24 08:14:25;;;;;;;;;5.00;4.00;;;;;24.01;49.71;100539.22;4975822;28;45437;-85
2021/07/24 08:16:51;;;;;;;;;4.00;4.00;;;;;24.13;49.10;100533.06;4973343;28;47337;-84
2021/07/24 08:19:16;;;;;;;;;3.33;3.00;;;;;24.23;48.94;100536.03;4971975;28;44760;-82
2021/07/24 08:21:41;;;;;;;;;3.67;3.67;;;;;24.34;48.81;100538.03;4959652;28;45885;-84
2021/07/24 08:24:07;;;;;;;;;5.00;4.00;;;;;24.39;48.88;100534.06;4960380;28;45600;-83
2021/07/24 08:26:32;;;;;;;;;4.67;4.00;;;;;24.48;48.71;100529.94;4960574;28;45662;-79
2021/07/24 08:28:58;;;;;;;;;4.67;4.67;;;;;24.54;48.37;100534.94;4958277;28;45404;-80
2021/07/24 08:31:23;;;;;;;;;5.33;4.00;;;;;24.56;48.41;100532.13;4985345;28;45410;-80
2021/07/24 08:33:49;;;;;;;;;5.67;4.33;;;;;24.61;47.95;100533.56;4964059;28;45379;-81
2021/07/24 08:36:14;;;;;;;;;3.33;3.33;;;;;24.61;47.45;100538.94;4965892;28;46989;-87
2021/07/24 08:38:42;;;;;;;;;4.00;4.00;;;;;24.55;47.45;100520.50;4987811;28;45248;-83
2021/07/24 08:41:07;;;;;;;;;3.00;3.00;;;;;24.61;47.47;100520.09;4983352;28;45263;-82
2021/07/24 08:43:33;;;;;;;;;3.33;3.33;;;;;24.69;47.45;100514.22;4965129;28;45500;-87
2021/07/24 08:45:59;;;;;;;;;5.00;5.00;;;;;24.79;47.50;100525.25;4976766;28;45284;-88
2021/07/24 08:48:24;;;;;;;;;5.00;4.00;;;;;24.78;46.71;100513.63;4983216;28;45891;-88
2021/07/24 08:50:53;;;;;;;;;4.00;4.00;;;;;24.81;46.95;100512.56;4984041;28;45411;-86
2021/07/24 08:53:23;;;;;;;;;4.33;3.67;;;;;24.83;46.93;100502.50;4974890;28;45380;-89
2021/07/24 08:55:58;;;;;;;;;4.00;4.00;;;;;24.91;46.77;100508.25;4973213;28;47667;-91
2021/07/24 08:58:23;;;;;;;;;5.00;5.00;;;;;25.02;46.90;100511.09;4983635;28;45222;-85
2021/07/24 09:00:49;;;;;;;;;3.00;3.00;;;;;25.13;46.75;100517.56;4988612;28;45288;-89
2021/07/24 09:03:19;;;;;;;;;4.00;4.00;;;;;25.22;46.46;100525.94;4962669;28;45561;-91
2021/07/24 09:05:49;;;;;;;;;5.00;4.25;;;;;25.30;45.96;100522.72;4966380;28;47979;-88
2021/07/24 09:08:16;;;;;;;;;5.00;5.00;;;;;25.34;46.32;100508.06;4977127;28;45456;-90
2021/07/24 09:10:44;;;;;;;;;4.33;4.00;;;;;25.43;46.40;100514.66;4969612;28;45453;-91
2021/07/24 09:13:10;;;;;;;;;3.00;3.00;;;;;25.52;46.15;100512.16;4973785;28;45464;-84
2021/07/24 09:15:36;;;;;;;;;2.67;2.00;;;;;25.59;44.99;100509.91;4948353;28;48468;-84
2021/07/24 09:18:02;;;;;;;;;3.00;3.00;;;;;25.68;45.24;100514.63;4956155;28;45339;-85
2021/07/24 09:20:30;;;;;;;;;5.00;4.00;;;;;25.73;45.11;100517.00;4945371;28;45256;-89
2021/07/24 09:22:55;;;;;;;;;4.67;3.67;;;;;25.72;44.70;100509.91;4945261;28;45545;-83
2021/07/24 09:25:22;;;;;;;;;3.00;3.00;;;;;25.81;44.59;100517.34;4962895;28;46223;-85
2021/07/24 09:27:50;;;;;;;;;2.00;2.00;;;;;25.90;44.39;100518.53;4965785;28;44885;-86
2021/07/24 09:30:27;;;;;;;;;4.33;4.33;;;;;25.98;43.87;100521.53;4957450;28;45473;-88
2021/07/24 09:33:16;;;;;;;;;6.00;5.00;;;;;26.01;44.52;100518.66;4958048;28;45192;-88
2021/07/24 09:35:49;;;;;;;;;5.00;4.33;;;;;26.10;44.39;100509.03;4953825;28;47171;-86
2021/07/24 09:38:31;;;;;;;;;2.00;2.00;;;;;26.18;44.54;100509.31;4967661;28;45401;-91
2021/07/24 09:40:58;;;;;;;;;2.67;2.00;;;;;26.24;44.02;100502.63;4952574;28;45351;-85
2021/07/24 09:43:36;;;;;;;;;3.33;3.00;;;;;26.31;43.53;100509.28;4944234;28;45214;-88
2021/07/24 09:46:13;;;;;;;;;3.33;3.00;;;;;26.33;42.67;100528.91;4945527;28;47589;-85
2021/07/24 09:48:40;;;;;;;;;5.00;3.00;;;;;26.30;43.04;100526.44;4962232;28;45444;-84
2021/07/24 09:51:05;;;;;;;;;4.00;4.00;;;;;26.32;42.50;100525.38;4965431;28;45295;-87
2021/07/24 09:53:44;;;;;;;;;5.25;4.00;;;;;26.40;42.55;100528.34;4972787;28;45220;-87
2021/07/24 09:56:15;;;;;;;;;3.67;3.67;;;;;26.49;42.59;100532.25;4962418;28;47098;-85
2021/07/24 09:58:44;;;;;;;;;5.67;4.67;;;;;26.46;42.09;100516.25;4956195;28;45370;-84
2021/07/24 10:01:19;;;;;;;;;4.00;3.00;;;;;26.52;42.26;100528.50;4974979;28;45459;-88
2021/07/24 10:03:50;;;;;;;;;2.33;2.33;;;;;26.50;42.13;100509.66;4960251;28;45454;-84
2021/07/24 10:06:17;;;;;;;;;4.00;3.00;;;;;26.56;41.86;100516.47;4966088;28;48059;-87
2021/07/24 10:08:47;;;;;;;;;3.33;3.33;;;;;26.71;42.18;100536.09;4981837;28;45598;-85
2021/07/24 10:11:17;;;;;;;;;3.00;2.67;;;;;26.80;41.90;100546.19;4981255;28;45351;-86
2021/07/24 10:13:44;;;;;;;;;2.33;2.33;;;;;26.89;41.69;100536.50;4983115;28;45357;-85
2021/07/24 10:16:10;;;;;;;;;4.67;3.33;;;;;26.96;41.38;100543.19;4980257;28;47817;-80
2021/07/24 10:18:35;;;;;;;;;3.33;3.33;;;;;26.97;40.94;100537.69;4970346;28;45411;-85
2021/07/24 10:21:02;;;;;;;;;5.00;4.00;;;;;27.04;41.29;100543.47;4975336;28;45315;-84
2021/07/24 10:23:28;;;;;;;;;6.00;4.00;;;;;27.04;40.90;100535.34;4961294;28;45939;-86
2021/07/24 10:26:13;;;;;;;;;4.00;4.00;;;;;27.11;40.81;100533.06;4962633;28;45480;-83
2021/07/24 10:28:53;;;;;;;;;2.67;2.67;;;;;27.18;40.23;100548.69;4974999;28;45434;-85
2021/07/24 10:31:28;;;;;;;;;2.00;2.00;;;;;27.20;39.90;100527.81;4990784;28;45221;-82
2021/07/24 10:33:58;;;;;;;;;2.33;2.33;;;;;27.25;39.60;100541.00;4963404;28;45299;-87
2021/07/24 10:36:39;;;;;;;;;3.00;3.00;;;;;27.21;39.84;100521.47;4977184;28;46087;-88
2021/07/24 10:39:27;;;;;;;;;2.00;2.00;;;;;27.33;39.72;100514.22;4961673;28;45355;-89
2021/07/24 10:42:01;;;;;;;;;5.00;3.00;;;;;27.55;39.61;100516.13;4980577;28;45312;-84
2021/07/24 10:44:43;;;;;;;;;4.00;4.00;;;;;27.63;39.27;100519.06;4971430;28;45445;-87
2021/07/24 10:47:17;;;;;;;;;2.00;2.00;;;;;27.73;39.17;100521.91;4984049;28;46637;-82
2021/07/24 10:49:45;;;;;;;;;1.00;1.00;;;;;27.82;38.90;100520.34;4976146;28;45264;-83
2021/07/24 10:52:16;;;;;;;;;3.00;3.00;;;;;27.95;38.85;100512.97;4971003;28;45347;-84
2021/07/24 10:55:02;;;;;;;;;4.00;4.00;;;;;28.09;38.95;100507.34;4960041;28;45283;-86
2021/07/24 10:57:45;;;;;;;;;6.00;4.33;;;;;28.27;38.56;100512.22;4959096;28;47082;-85
2021/07/24 11:00:22;;;;;;;;;3.00;3.00;;;;;28.36;38.14;100498.78;4975844;28;45276;-83
2021/07/24 11:02:49;;;;;;;;;2.00;2.00;;;;;28.40;38.24;100499.38;4965376;28;45326;-83
2021/07/24 11:05:27;;;;;;;;;3.67;3.00;;;;;28.50;38.33;100496.81;4970310;28;45469;-84
2021/07/24 11:07:54;;;;;;;;;2.67;2.33;;;;;28.63;37.99;100494.81;4947860;28;47323;-84
2021/07/24 11:10:20;;;;;;;;;3.00;2.00;;;;;28.76;37.80;100500.03;4957295;28;45925;-85
2021/07/24 11:12:46;;;;;;;;;5.00;2.00;;;;;28.89;36.93;100498.00;4964414;28;45242;-85
2021/07/24 11:15:20;;;;;;;;;4.33;2.67;;;;;28.93;36.37;100502.19;4956426;28;45405;-86
2021/07/24 11:18:34;;;;;;;;;;;;;;;;;;;;;
2021/07/24 11:21:00;;;;;;;;;2.00;1.67;;;;;28.66;36.40;100513.50;4966622;28;73146;-85
2021/07/24 11:23:25;;;;;;;;;2.00;2.00;;;;;28.57;37.14;100512.44;4966542;28;45381;-81
2021/07/24 11:26:00;;;;;;;;;2.00;1.67;;;;;28.54;36.62;100507.25;4950627;28;45460;-84
2021/07/24 11:28:25;;;;;;;;;3.00;1.00;;;;;28.53;36.92;100499.28;4947004;28;47530;-90
2021/07/24 11:31:05;;;;;;;;;3.33;2.33;;;;;28.61;36.68;100509.47;4960925;28;45508;-87
2021/07/24 11:33:33;;;;;;;;;3.00;3.00;;;;;28.72;37.20;100494.03;4965612;28;45420;-87
2021/07/24 11:36:08;;;;;;;;;2.67;2.33;;;;;28.90;36.67;100496.19;4976275;28;45417;-86